Weyerhaeuser, Wisconsin
Current Conditions -  °F | °C
As of 11:55 PM on Tuesday 21 Oct 2014 (Local Time) from KY23 Reporting Station
Clear Clear  
Wind Chill: 36°   Ceiling: Unl
Heat Index: 40°   Visibility: 10mi
Dew Point: 35°   Wind: 5mph
Humidity: 85%   Direction: 120°ESE
Pressure: 30.24"   Gusts: NA
Location:  45.42°N, 91.41°W
Report Text: KY23 220455Z AUTO 12004KT 10SM CLR 04/02 A3024 RMK AO2 T00420018 401240042
Loading
Personal Weather Stations






























Interactive Weather Map
Tropical Storm Tracking
New forecast layout! Learn more

10-Day Weather Forecast

Advertisements
Track Severe Weather on mobile